sensor_id;sensor_type;location;lat;lon;timestamp;pressure;altitude;pressure_sealevel;temperature;humidity
21547;BME280;41275;51.912;4.388;2023-05-01T00:00:06;101781.56;;;21.56;34.69
21547;BME280;41275;51.912;4.388;2023-05-01T00:05:27;101770.28;;;21.54;34.41
21547;BME280;41275;51.912;4.388;2023-05-01T00:10:48;101764.59;;;21.56;34.58
21547;BME280;41275;51.912;4.388;2023-05-01T00:16:10;101758.97;;;21.52;34.46
21547;BME280;41275;51.912;4.388;2023-05-01T00:21:32;101749.31;;;21.46;34.54
21547;BME280;41275;51.912;4.388;2023-05-01T00:26:53;101751.75;;;21.43;34.47
21547;BME280;41275;51.912;4.388;2023-05-01T00:32:14;101745.56;;;21.42;34.49
21547;BME280;41275;51.912;4.388;2023-05-01T00:37:36;101745.00;;;21.40;34.52
21547;BME280;41275;51.912;4.388;2023-05-01T00:42:57;101741.28;;;21.36;34.60
21547;BME280;41275;51.912;4.388;2023-05-01T00:48:18;101726.72;;;21.32;34.77
21547;BME280;41275;51.912;4.388;2023-05-01T00:53:39;101715.44;;;21.30;34.68
21547;BME280;41275;51.912;4.388;2023-05-01T00:59:03;101706.84;;;21.23;34.67
21547;BME280;41275;51.912;4.388;2023-05-01T01:04:25;101697.97;;;21.17;34.57
21547;BME280;41275;51.912;4.388;2023-05-01T01:10:09;101675.13;;;21.09;34.49
21547;BME280;41275;51.912;4.388;2023-05-01T01:15:44;101685.09;;;21.09;34.84
21547;BME280;41275;51.912;4.388;2023-05-01T01:21:35;101670.28;;;21.12;34.80
21547;BME280;41275;51.912;4.388;2023-05-01T01:27:12;101672.69;;;21.13;34.61
21547;BME280;41275;51.912;4.388;2023-05-01T01:32:55;101663.31;;;21.11;34.66
21547;BME280;41275;51.912;4.388;2023-05-01T01:38:34;101667.06;;;21.09;34.54
21547;BME280;41275;51.912;4.388;2023-05-01T01:44:15;101649.88;;;21.00;34.71
21547;BME280;41275;51.912;4.388;2023-05-01T01:49:47;101640.78;;;20.91;34.81
21547;BME280;41275;51.912;4.388;2023-05-01T01:55:11;101641.66;;;20.76;35.08
21547;BME280;41275;51.912;4.388;2023-05-01T02:00:34;101631.44;;;20.68;35.56
21547;BME280;41275;51.912;4.388;2023-05-01T02:05:56;101625.28;;;20.63;35.91
21547;BME280;41275;51.912;4.388;2023-05-01T02:11:19;101621.81;;;20.57;35.89
21547;BME280;41275;51.912;4.388;2023-05-01T02:16:42;101609.72;;;20.49;35.65
21547;BME280;41275;51.912;4.388;2023-05-01T02:22:06;101605.41;;;20.48;36.01
21547;BME280;41275;51.912;4.388;2023-05-01T02:27:30;101608.09;;;20.48;36.12
21547;BME280;41275;51.912;4.388;2023-05-01T02:32:52;101599.50;;;20.41;36.48
21547;BME280;41275;51.912;4.388;2023-05-01T02:38:14;101591.19;;;20.38;36.79
21547;BME280;41275;51.912;4.388;2023-05-01T02:43:36;101590.91;;;20.39;36.93
21547;BME280;41275;51.912;4.388;2023-05-01T02:49:00;101591.47;;;20.36;36.93
21547;BME280;41275;51.912;4.388;2023-05-01T02:54:22;101582.06;;;20.33;37.31
21547;BME280;41275;51.912;4.388;2023-05-01T02:59:43;101572.38;;;20.27;37.43
21547;BME280;41275;51.912;4.388;2023-05-01T03:05:05;101566.75;;;20.24;37.54
21547;BME280;41275;51.912;4.388;2023-05-01T03:10:26;101566.47;;;20.30;37.59
21547;BME280;41275;51.912;4.388;2023-05-01T03:15:47;101552.47;;;20.33;37.47
21547;BME280;41275;51.912;4.388;2023-05-01T03:21:09;101556.53;;;20.36;37.34
21547;BME280;41275;51.912;4.388;2023-05-01T03:26:30;101547.38;;;20.37;37.25
21547;BME280;41275;51.912;4.388;2023-05-01T03:31:52;101538.75;;;20.40;37.02
21547;BME280;41275;51.912;4.388;2023-05-01T03:37:14;101543.34;;;20.40;36.08
21547;BME280;41275;51.912;4.388;2023-05-01T03:42:35;101529.09;;;20.34;36.00
21547;BME280;41275;51.912;4.388;2023-05-01T03:47:56;101531.25;;;20.32;36.06
21547;BME280;41275;51.912;4.388;2023-05-01T03:53:17;101526.16;;;20.30;36.18
21547;BME280;41275;51.912;4.388;2023-05-01T03:58:38;101514.88;;;20.28;36.16
21547;BME280;41275;51.912;4.388;2023-05-01T04:04:00;101532.34;;;20.26;36.39
21547;BME280;41275;51.912;4.388;2023-05-01T04:09:22;101519.19;;;20.19;36.60
21547;BME280;41275;51.912;4.388;2023-05-01T04:14:43;101508.44;;;20.19;36.66
21547;BME280;41275;51.912;4.388;2023-05-01T04:20:05;101508.44;;;20.19;36.78
21547;BME280;41275;51.912;4.388;2023-05-01T04:25:26;101503.91;;;20.15;36.88
21547;BME280;41275;51.912;4.388;2023-05-01T04:30:47;101507.09;;;20.22;36.89
21547;BME280;41275;51.912;4.388;2023-05-01T04:36:09;101495.56;;;20.21;36.45
21547;BME280;41275;51.912;4.388;2023-05-01T04:41:30;101499.28;;;20.25;36.60
21547;BME280;41275;51.912;4.388;2023-05-01T04:46:51;101496.03;;;20.33;36.59
21547;BME280;41275;51.912;4.388;2023-05-01T04:52:12;101507.84;;;20.38;36.37
21547;BME280;41275;51.912;4.388;2023-05-01T04:57:34;101499.81;;;20.32;36.41
21547;BME280;41275;51.912;4.388;2023-05-01T05:02:55;101507.31;;;20.35;36.47
21547;BME280;41275;51.912;4.388;2023-05-01T05:08:16;101511.84;;;20.55;36.24
21547;BME280;41275;51.912;4.388;2023-05-01T05:13:37;101509.34;;;20.69;36.02
21547;BME280;41275;51.912;4.388;2023-05-01T05:18:59;101502.06;;;20.70;36.00
21547;BME280;41275;51.912;4.388;2023-05-01T05:24:20;101508.00;;;20.72;36.00
21547;BME280;41275;51.912;4.388;2023-05-01T05:29:41;101504.50;;;20.71;36.23
21547;BME280;41275;51.912;4.388;2023-05-01T05:35:02;101500.94;;;20.81;35.84
21547;BME280;41275;51.912;4.388;2023-05-01T05:40:24;101505.94;;;20.98;35.26
21547;BME280;41275;51.912;4.388;2023-05-01T05:45:46;101500.78;;;21.06;35.22
21547;BME280;41275;51.912;4.388;2023-05-01T05:51:07;101497.78;;;21.08;35.49
21547;BME280;41275;51.912;4.388;2023-05-01T05:56:28;101495.84;;;21.14;36.47
21547;BME280;41275;51.912;4.388;2023-05-01T06:01:49;101490.22;;;21.15;36.98
21547;BME280;41275;51.912;4.388;2023-05-01T06:07:10;101493.41;;;21.22;36.10
21547;BME280;41275;51.912;4.388;2023-05-01T06:12:32;101489.06;;;21.26;36.48
21547;BME280;41275;51.912;4.388;2023-05-01T06:17:53;101495.47;;;21.30;36.30
21547;BME280;41275;51.912;4.388;2023-05-01T06:23:14;101494.69;;;21.30;36.20
21547;BME280;41275;51.912;4.388;2023-05-01T06:28:36;101493.84;;;21.29;36.16
21547;BME280;41275;51.912;4.388;2023-05-01T06:33:57;101492.22;;;21.33;35.87
21547;BME280;41275;51.912;4.388;2023-05-01T06:39:18;101488.72;;;21.38;35.77
21547;BME280;41275;51.912;4.388;2023-05-01T06:44:40;101498.75;;;21.56;35.40
21547;BME280;41275;51.912;4.388;2023-05-01T06:50:02;101503.50;;;21.70;35.15
21547;BME280;41275;51.912;4.388;2023-05-01T06:55:24;101499.91;;;21.79;34.92
21547;BME280;41275;51.912;4.388;2023-05-01T07:00:45;101503.94;;;21.77;34.99
21547;BME280;41275;51.912;4.388;2023-05-01T07:06:06;101503.00;;;21.92;34.74
21547;BME280;41275;51.912;4.388;2023-05-01T07:11:28;101499.28;;;22.12;34.84
21547;BME280;41275;51.912;4.388;2023-05-01T07:16:49;101504.84;;;22.20;34.79
21547;BME280;41275;51.912;4.388;2023-05-01T07:22:10;101507.38;;;22.36;34.71
21547;BME280;41275;51.912;4.388;2023-05-01T07:27:32;101504.81;;;22.68;34.06
21547;BME280;41275;51.912;4.388;2023-05-01T07:32:53;101506.09;;;22.90;32.84
21547;BME280;41275;51.912;4.388;2023-05-01T07:38:15;101502.53;;;22.94;33.19
21547;BME280;41275;51.912;4.388;2023-05-01T07:43:36;101511.28;;;22.86;33.25
21547;BME280;41275;51.912;4.388;2023-05-01T07:48:58;101503.25;;;22.81;33.18
21547;BME280;41275;51.912;4.388;2023-05-01T07:54:19;101502.69;;;22.65;33.67
21547;BME280;41275;51.912;4.388;2023-05-01T07:59:41;101501.31;;;22.44;34.13
21547;BME280;41275;51.912;4.388;2023-05-01T08:05:03;101509.00;;;22.37;34.03
21547;BME280;41275;51.912;4.388;2023-05-01T08:10:24;101512.06;;;22.49;34.12
21547;BME280;41275;51.912;4.388;2023-05-01T08:15:47;101516.94;;;22.47;34.03
21547;BME280;41275;51.912;4.388;2023-05-01T08:21:09;101527.72;;;22.47;34.13
21547;BME280;41275;51.912;4.388;2023-05-01T08:26:30;101534.06;;;22.37;34.21
21547;BME280;41275;51.912;4.388;2023-05-01T08:31:51;101528.25;;;22.01;34.82
21547;BME280;41275;51.912;4.388;2023-05-01T08:37:13;101538.16;;;21.76;35.53
21547;BME280;41275;51.912;4.388;2023-05-01T08:42:35;101544.84;;;21.55;37.18
21547;BME280;41275;51.912;4.388;2023-05-01T08:47:57;101551.53;;;21.23;38.66
21547;BME280;41275;51.912;4.388;2023-05-01T08:53:19;101544.66;;;21.02;39.48
21547;BME280;41275;51.912;4.388;2023-05-01T08:58:42;101554.13;;;20.94;40.05
21547;BME280;41275;51.912;4.388;2023-05-01T09:04:06;101563.81;;;20.95;40.17
21547;BME280;41275;51.912;4.388;2023-05-01T09:09:28;101553.13;;;20.75;40.25
21547;BME280;41275;51.912;4.388;2023-05-01T09:14:53;101559.63;;;20.69;40.60
21547;BME280;41275;51.912;4.388;2023-05-01T09:20:16;101568.84;;;20.42;41.25
21547;BME280;41275;51.912;4.388;2023-05-01T09:25:38;101568.13;;;20.16;41.75
21547;BME280;41275;51.912;4.388;2023-05-01T09:30:59;101577.28;;;20.00;42.87
21547;BME280;41275;51.912;4.388;2023-05-01T09:36:26;101572.75;;;19.75;42.82
21547;BME280;41275;51.912;4.388;2023-05-01T09:41:51;101567.09;;;19.71;44.14
21547;BME280;41275;51.912;4.388;2023-05-01T09:47:20;101568.19;;;19.70;44.84
21547;BME280;41275;51.912;4.388;2023-05-01T09:52:48;101574.59;;;19.95;45.46
21547;BME280;41275;51.912;4.388;2023-05-01T09:58:25;101572.19;;;19.98;45.51
21547;BME280;41275;51.912;4.388;2023-05-01T10:03:52;101571.63;;;20.17;45.67
21547;BME280;41275;51.912;4.388;2023-05-01T10:09:26;101581.50;;;20.31;45.41
21547;BME280;41275;51.912;4.388;2023-05-01T10:14:52;101579.09;;;20.35;45.54
21547;BME280;41275;51.912;4.388;2023-05-01T10:20:14;101583.66;;;20.50;45.69
21547;BME280;41275;51.912;4.388;2023-05-01T10:25:36;101589.19;;;20.74;45.29
21547;BME280;41275;51.912;4.388;2023-05-01T10:30:57;101587.69;;;21.07;45.46
21547;BME280;41275;51.912;4.388;2023-05-01T10:36:23;101593.47;;;21.35;44.67
21547;BME280;41275;51.912;4.388;2023-05-01T11:09:47;101588.28;;;23.73;41.23
21547;BME280;41275;51.912;4.388;2023-05-01T11:15:31;101585.47;;;24.11;39.86
21547;BME280;41275;51.912;4.388;2023-05-01T11:20:53;101577.75;;;24.59;38.71
21547;BME280;41275;51.912;4.388;2023-05-01T11:26:14;101580.28;;;24.69;38.18
21547;BME280;41275;51.912;4.388;2023-05-01T11:31:36;101573.34;;;24.63;37.99
21547;BME280;41275;51.912;4.388;2023-05-01T11:36:58;101575.94;;;24.82;37.51
21547;BME280;41275;51.912;4.388;2023-05-01T11:42:20;101576.66;;;25.24;36.78
21547;BME280;41275;51.912;4.388;2023-05-01T11:47:42;101575.53;;;25.48;36.21
21547;BME280;41275;51.912;4.388;2023-05-01T11:53:09;101580.88;;;25.61;35.61
21547;BME280;41275;51.912;4.388;2023-05-01T11:58:35;101581.72;;;25.93;35.38
21547;BME280;41275;51.912;4.388;2023-05-01T12:03:57;101577.19;;;26.11;34.67
21547;BME280;41275;51.912;4.388;2023-05-01T12:09:23;101586.53;;;26.44;33.91
21547;BME280;41275;51.912;4.388;2023-05-01T12:14:45;101591.72;;;26.72;32.34
21547;BME280;41275;51.912;4.388;2023-05-01T12:20:07;101591.53;;;26.51;32.67
21547;BME280;41275;51.912;4.388;2023-05-01T12:25:29;101582.09;;;26.49;32.49
21547;BME280;41275;51.912;4.388;2023-05-01T12:30:52;101579.66;;;27.04;31.42
21547;BME280;41275;51.912;4.388;2023-05-01T12:36:16;101585.88;;;27.05;31.28
21547;BME280;41275;51.912;4.388;2023-05-01T12:47:05;101594.09;;;29.47;28.85
21547;BME280;41275;51.912;4.388;2023-05-01T12:52:27;101584.38;;;29.25;28.27
21547;BME280;41275;51.912;4.388;2023-05-01T12:57:52;101584.03;;;28.84;28.69
21547;BME280;41275;51.912;4.388;2023-05-01T13:03:21;101589.66;;;27.91;29.37
21547;BME280;41275;51.912;4.388;2023-05-01T13:08:43;101597.72;;;27.00;29.55
21547;BME280;41275;51.912;4.388;2023-05-01T13:14:06;101596.31;;;26.06;30.76
21547;BME280;41275;51.912;4.388;2023-05-01T13:19:28;101598.56;;;25.36;31.22
21547;BME280;41275;51.912;4.388;2023-05-01T13:24:50;101598.38;;;24.96;31.55
21547;BME280;41275;51.912;4.388;2023-05-01T13:30:11;101593.13;;;25.14;31.20
21547;BME280;41275;51.912;4.388;2023-05-01T13:35:32;101597.13;;;25.61;31.52
21547;BME280;41275;51.912;4.388;2023-05-01T13:40:54;101596.75;;;25.77;32.10
21547;BME280;41275;51.912;4.388;2023-05-01T13:46:17;101604.75;;;26.04;31.28
21547;BME280;41275;51.912;4.388;2023-05-01T13:51:40;101602.06;;;26.13;30.98
21547;BME280;41275;51.912;4.388;2023-05-01T13:57:02;101595.44;;;27.72;29.14
21547;BME280;41275;51.912;4.388;2023-05-01T14:02:25;101598.63;;;28.80;27.05
21547;BME280;41275;51.912;4.388;2023-05-01T14:07:53;101595.31;;;28.95;26.86
21547;BME280;41275;51.912;4.388;2023-05-01T14:13:16;101584.53;;;29.74;26.32
21547;BME280;41275;51.912;4.388;2023-05-01T14:18:45;101596.22;;;29.29;26.24
21547;BME280;41275;51.912;4.388;2023-05-01T14:24:07;101596.19;;;29.95;25.38
21547;BME280;41275;51.912;4.388;2023-05-01T14:29:29;101589.50;;;30.17;24.96
21547;BME280;41275;51.912;4.388;2023-05-01T14:34:50;101594.41;;;30.24;25.20
21547;BME280;41275;51.912;4.388;2023-05-01T14:40:12;101599.03;;;29.99;25.40
21547;BME280;41275;51.912;4.388;2023-05-01T14:45:40;101616.47;;;29.19;26.33
21547;BME280;41275;51.912;4.388;2023-05-01T14:51:13;101612.44;;;29.04;27.24
21547;BME280;41275;51.912;4.388;2023-05-01T14:56:39;101621.81;;;28.65;28.03
21547;BME280;41275;51.912;4.388;2023-05-01T15:02:00;101640.50;;;28.75;28.05
21547;BME280;41275;51.912;4.388;2023-05-01T15:07:22;101644.47;;;28.48;28.74
21547;BME280;41275;51.912;4.388;2023-05-01T15:12:43;101634.81;;;28.89;28.08
21547;BME280;41275;51.912;4.388;2023-05-01T15:18:05;101635.00;;;29.68;26.93
21547;BME280;41275;51.912;4.388;2023-05-01T15:23:27;101633.16;;;29.59;26.65
21547;BME280;41275;51.912;4.388;2023-05-01T15:28:48;101631.72;;;30.32;26.15
21547;BME280;41275;51.912;4.388;2023-05-01T15:34:09;101644.22;;;30.57;25.76
21547;BME280;41275;51.912;4.388;2023-05-01T15:39:30;101645.75;;;30.09;26.07
21547;BME280;41275;51.912;4.388;2023-05-01T15:44:53;101645.69;;;30.67;25.45
21547;BME280;41275;51.912;4.388;2023-05-01T15:50:14;101660.22;;;31.08;24.65
21547;BME280;41275;51.912;4.388;2023-05-01T15:55:35;101661.78;;;29.99;24.92
21547;BME280;41275;51.912;4.388;2023-05-01T16:00:56;101655.66;;;26.78;29.22
21547;BME280;41275;51.912;4.388;2023-05-01T16:06:20;101660.03;;;25.50;31.03
21547;BME280;41275;51.912;4.388;2023-05-01T16:11:42;101672.97;;;24.47;32.44
21547;BME280;41275;51.912;4.388;2023-05-01T16:17:04;101675.28;;;24.08;33.53
21547;BME280;41275;51.912;4.388;2023-05-01T16:22:25;101674.47;;;23.56;34.71
21547;BME280;41275;51.912;4.388;2023-05-01T16:27:48;101667.38;;;23.22;34.96
21547;BME280;41275;51.912;4.388;2023-05-01T16:33:15;101675.00;;;23.39;35.48
21547;BME280;41275;51.912;4.388;2023-05-01T16:38:37;101679.50;;;23.43;35.22
21547;BME280;41275;51.912;4.388;2023-05-01T16:43:59;101701.56;;;23.88;34.39
21547;BME280;41275;51.912;4.388;2023-05-01T16:49:21;101701.53;;;26.49;31.24
21547;BME280;41275;51.912;4.388;2023-05-01T16:54:43;101693.97;;;27.69;29.20
21547;BME280;41275;51.912;4.388;2023-05-01T17:00:05;101711.69;;;28.01;28.81
21547;BME280;41275;51.912;4.388;2023-05-01T17:05:26;101709.78;;;27.93;28.68
21547;BME280;41275;51.912;4.388;2023-05-01T17:10:50;101706.75;;;27.85;29.26
21547;BME280;41275;51.912;4.388;2023-05-01T17:16:11;101712.19;;;27.68;29.62
21547;BME280;41275;51.912;4.388;2023-05-01T17:21:32;101720.94;;;27.13;30.29
21547;BME280;41275;51.912;4.388;2023-05-01T17:26:54;101726.28;;;27.44;29.64
21547;BME280;41275;51.912;4.388;2023-05-01T17:32:15;101726.41;;;26.73;30.61
21547;BME280;41275;51.912;4.388;2023-05-01T17:37:37;101738.84;;;26.43;31.15
21547;BME280;41275;51.912;4.388;2023-05-01T17:43:01;101736.38;;;26.55;31.61
21547;BME280;41275;51.912;4.388;2023-05-01T17:48:22;101750.31;;;26.40;31.99
21547;BME280;41275;51.912;4.388;2023-05-01T17:53:43;101750.69;;;25.43;33.16
21547;BME280;41275;51.912;4.388;2023-05-01T17:59:05;101761.81;;;24.73;35.05
21547;BME280;41275;51.912;4.388;2023-05-01T18:04:26;101762.00;;;24.63;35.42
21547;BME280;41275;51.912;4.388;2023-05-01T18:09:47;101766.03;;;23.57;36.65
21547;BME280;41275;51.912;4.388;2023-05-01T18:15:08;101772.78;;;22.59;38.01
21547;BME280;41275;51.912;4.388;2023-05-01T18:20:30;101777.31;;;21.40;39.91
21547;BME280;41275;51.912;4.388;2023-05-01T18:25:53;101784.72;;;20.89;40.85
21547;BME280;41275;51.912;4.388;2023-05-01T18:31:14;101783.44;;;20.55;42.02
21547;BME280;41275;51.912;4.388;2023-05-01T18:36:36;101782.31;;;20.31;43.10
21547;BME280;41275;51.912;4.388;2023-05-01T18:41:57;101795.19;;;20.14;43.66
21547;BME280;41275;51.912;4.388;2023-05-01T18:47:18;101798.34;;;19.75;44.67
21547;BME280;41275;51.912;4.388;2023-05-01T18:52:39;101793.16;;;19.58;45.55
21547;BME280;41275;51.912;4.388;2023-05-01T18:58:02;101810.69;;;19.76;45.81
21547;BME280;41275;51.912;4.388;2023-05-01T19:03:23;101808.28;;;19.79;46.14
21547;BME280;41275;51.912;4.388;2023-05-01T19:08:44;101814.78;;;19.99;46.42
21547;BME280;41275;51.912;4.388;2023-05-01T19:14:06;101832.25;;;20.01;46.20
21547;BME280;41275;51.912;4.388;2023-05-01T19:19:27;101837.03;;;19.79;46.58
21547;BME280;41275;51.912;4.388;2023-05-01T19:24:48;101847.19;;;19.67;46.73
21547;BME280;41275;51.912;4.388;2023-05-01T19:30:09;101845.78;;;19.59;47.23
21547;BME280;41275;51.912;4.388;2023-05-01T19:35:31;101860.78;;;19.50;47.61
21547;BME280;41275;51.912;4.388;2023-05-01T19:40:52;101861.81;;;19.49;47.60
21547;BME280;41275;51.912;4.388;2023-05-01T19:46:13;101874.19;;;19.50;47.80
21547;BME280;41275;51.912;4.388;2023-05-01T19:51:34;101873.84;;;19.36;47.82
21547;BME280;41275;51.912;4.388;2023-05-01T19:56:56;101887.03;;;19.37;47.66
21547;BME280;41275;51.912;4.388;2023-05-01T20:02:18;101897.56;;;19.54;47.84
21547;BME280;41275;51.912;4.388;2023-05-01T20:07:39;101897.88;;;19.58;47.67
21547;BME280;41275;51.912;4.388;2023-05-01T20:13:01;101919.88;;;19.60;47.75
21547;BME280;41275;51.912;4.388;2023-05-01T20:18:28;101916.88;;;19.51;47.80
21547;BME280;41275;51.912;4.388;2023-05-01T20:23:50;101924.94;;;19.51;47.62
21547;BME280;41275;51.912;4.388;2023-05-01T20:29:11;101917.41;;;19.48;47.86
21547;BME280;41275;51.912;4.388;2023-05-01T20:34:32;101910.13;;;19.44;47.66
21547;BME280;41275;51.912;4.388;2023-05-01T20:39:54;101910.97;;;19.49;47.72
21547;BME280;41275;51.912;4.388;2023-05-01T20:45:15;101913.66;;;19.49;47.90
21547;BME280;41275;51.912;4.388;2023-05-01T20:50:37;101915.50;;;19.44;48.18
21547;BME280;41275;51.912;4.388;2023-05-01T20:55:58;101931.28;;;19.35;48.24
21547;BME280;41275;51.912;4.388;2023-05-01T21:01:19;101921.63;;;19.34;48.33
21547;BME280;41275;51.912;4.388;2023-05-01T21:06:41;101924.72;;;19.21;48.30
21547;BME280;41275;51.912;4.388;2023-05-01T21:12:03;101927.09;;;18.80;48.82
21547;BME280;41275;51.912;4.388;2023-05-01T21:17:26;101923.78;;;18.73;49.20
21547;BME280;41275;51.912;4.388;2023-05-01T21:22:47;101931.88;;;18.78;49.02
21547;BME280;41275;51.912;4.388;2023-05-01T21:28:13;101936.75;;;18.81;49.04
21547;BME280;41275;51.912;4.388;2023-05-01T21:33:35;101963.31;;;18.82;48.87
21547;BME280;41275;51.912;4.388;2023-05-01T21:39:12;101960.09;;;18.85;48.87
21547;BME280;41275;51.912;4.388;2023-05-01T21:44:33;101961.91;;;18.75;48.79
21547;BME280;41275;51.912;4.388;2023-05-01T21:49:55;101949.25;;;18.48;48.94
21547;BME280;41275;51.912;4.388;2023-05-01T21:55:22;101956.63;;;18.36;48.78
21547;BME280;41275;51.912;4.388;2023-05-01T22:00:44;101957.53;;;18.20;48.92
21547;BME280;41275;51.912;4.388;2023-05-01T22:06:06;101972.50;;;17.99;49.53
21547;BME280;41275;51.912;4.388;2023-05-01T22:11:27;101983.81;;;17.84;49.85
21547;BME280;41275;51.912;4.388;2023-05-01T22:16:48;101984.94;;;17.88;49.69
21547;BME280;41275;51.912;4.388;2023-05-01T22:22:10;101991.84;;;17.84;49.91
21547;BME280;41275;51.912;4.388;2023-05-01T22:27:31;102006.72;;;17.75;50.02
21547;BME280;41275;51.912;4.388;2023-05-01T22:32:53;102001.69;;;17.61;50.39
21547;BME280;41275;51.912;4.388;2023-05-01T22:38:14;102015.28;;;17.60;50.43
21547;BME280;41275;51.912;4.388;2023-05-01T22:43:35;102019.34;;;17.62;50.28
21547;BME280;41275;51.912;4.388;2023-05-01T22:48:57;102022.19;;;17.56;50.83
21547;BME280;41275;51.912;4.388;2023-05-01T22:54:19;102029.00;;;17.47;50.57
21547;BME280;41275;51.912;4.388;2023-05-01T22:59:41;102032.09;;;17.38;51.19
21547;BME280;41275;51.912;4.388;2023-05-01T23:05:02;102037.34;;;17.33;51.27
21547;BME280;41275;51.912;4.388;2023-05-01T23:10:25;102049.53;;;17.41;51.26
21547;BME280;41275;51.912;4.388;2023-05-01T23:15:46;102074.56;;;17.52;51.21
21547;BME280;41275;51.912;4.388;2023-05-01T23:21:13;102090.56;;;17.47;51.20
21547;BME280;41275;51.912;4.388;2023-05-01T23:26:37;102082.94;;;17.38;51.06
21547;BME280;41275;51.912;4.388;2023-05-01T23:32:01;102099.59;;;17.29;51.60
21547;BME280;41275;51.912;4.388;2023-05-01T23:37:22;102095.22;;;17.23;51.40
21547;BME280;41275;51.912;4.388;2023-05-01T23:42:43;102102.22;;;17.40;51.99
21547;BME280;41275;51.912;4.388;2023-05-01T23:48:05;102096.88;;;17.40;51.59
21547;BME280;41275;51.912;4.388;2023-05-01T23:53:26;102102.16;;;17.52;51.74
21547;BME280;41275;51.912;4.388;2023-05-01T23:58:48;102100.47;;;17.46;51.82
